createdAt,value
2022-09-21T00:01:06.964Z,100.00
2022-09-21T00:03:34.694Z,100.00
2022-09-21T00:06:06.554Z,100.00
2022-09-21T00:08:34.758Z,100.00
2022-09-21T00:11:05.505Z,100.00
2022-09-21T00:13:34.634Z,100.00
2022-09-21T00:16:05.681Z,100.00
2022-09-21T00:18:33.638Z,100.00
2022-09-21T00:21:02.083Z,100.00
2022-09-21T00:23:29.997Z,100.00
2022-09-21T00:26:08.168Z,100.00
2022-09-21T00:28:36.021Z,100.00
2022-09-21T00:31:04.443Z,100.00
2022-09-21T00:33:32.209Z,100.00
2022-09-21T00:36:03.388Z,100.00
2022-09-21T00:38:31.212Z,100.00
2022-09-21T00:40:59.124Z,100.00
2022-09-21T00:43:28.523Z,100.00
2022-09-21T00:46:02.515Z,100.00
2022-09-21T00:48:30.947Z,100.00
2022-09-21T00:51:04.152Z,100.00
2022-09-21T00:53:33.089Z,100.00
2022-09-21T00:56:03.617Z,100.00
2022-09-21T00:58:35.258Z,100.00
2022-09-21T01:01:02.947Z,100.00
2022-09-21T01:03:32.322Z,100.00
2022-09-21T01:06:00.002Z,100.00
2022-09-21T01:08:29.278Z,100.00
2022-09-21T01:11:13.642Z,100.00
2022-09-21T01:13:52.388Z,100.00
2022-09-21T01:16:26.845Z,100.00
2022-09-21T01:19:01.060Z,100.00
2022-09-21T01:21:34.092Z,100.00
2022-09-21T01:24:21.149Z,100.00
2022-09-21T01:27:17.203Z,100.00
2022-09-21T01:29:51.615Z,100.00
2022-09-21T01:32:25.026Z,100.00
2022-09-21T01:34:56.424Z,100.00
2022-09-21T01:37:27.839Z,100.00
2022-09-21T01:40:00.639Z,100.00
2022-09-21T01:42:33.163Z,100.00
2022-09-21T01:45:05.467Z,100.00
2022-09-21T01:47:34.869Z,100.00
2022-09-21T01:50:06.321Z,100.00
2022-09-21T01:52:39.575Z,100.00
2022-09-21T01:55:13.938Z,100.00
2022-09-21T01:57:51.035Z,100.00
2022-09-21T02:00:20.166Z,100.00
2022-09-21T02:02:52.332Z,100.00
2022-09-21T02:05:22.856Z,100.00
2022-09-21T02:07:53.528Z,100.00
2022-09-21T02:10:24.854Z,100.00
2022-09-21T02:12:56.866Z,100.00
2022-09-21T02:15:32.979Z,100.00
2022-09-21T02:18:07.362Z,100.00
2022-09-21T02:20:40.538Z,100.00
2022-09-21T02:23:16.120Z,100.00
2022-09-21T02:25:50.569Z,100.00
2022-09-21T02:28:30.825Z,100.00
2022-09-21T02:31:07.410Z,100.00
2022-09-21T02:33:45.677Z,100.00
2022-09-21T02:36:21.056Z,100.00
2022-09-21T02:38:54.092Z,100.00
2022-09-21T02:41:27.773Z,100.00
2022-09-21T02:44:04.008Z,100.00
2022-09-21T02:46:38.808Z,100.00
2022-09-21T02:49:10.610Z,100.00
2022-09-21T02:51:44.158Z,100.00
2022-09-21T02:54:15.266Z,100.00
2022-09-21T02:56:43.664Z,100.00
2022-09-21T02:59:11.833Z,100.00
2022-09-21T03:01:42.232Z,100.00
2022-09-21T03:04:09.948Z,100.00
2022-09-21T03:06:37.534Z,100.00
2022-09-21T03:09:05.593Z,100.00
2022-09-21T03:11:33.784Z,100.00
2022-09-21T03:14:02.336Z,100.00
2022-09-21T03:16:29.955Z,100.00
2022-09-21T03:18:58.915Z,100.00
2022-09-21T03:21:26.578Z,100.00
2022-09-21T03:23:55.323Z,100.00
2022-09-21T03:26:23.155Z,100.00
2022-09-21T03:28:51.374Z,100.00
2022-09-21T03:31:19.004Z,100.00
2022-09-21T03:33:46.870Z,100.00
2022-09-21T03:36:15.859Z,100.00
2022-09-21T03:38:44.277Z,100.00
2022-09-21T03:41:12.127Z,100.00
2022-09-21T03:43:39.711Z,100.00
2022-09-21T03:46:07.360Z,100.00
2022-09-21T03:48:35.003Z,100.00
2022-09-21T03:51:02.608Z,100.00
2022-09-21T03:53:31.550Z,100.00
2022-09-21T03:55:59.153Z,100.00
2022-09-21T03:58:26.821Z,100.00
2022-09-21T04:00:54.444Z,100.00
2022-09-21T04:03:22.234Z,100.00
2022-09-21T04:05:49.816Z,100.00
2022-09-21T04:08:17.430Z,100.00
2022-09-21T04:10:46.368Z,100.00
2022-09-21T04:13:14.315Z,100.00
2022-09-21T04:15:41.929Z,100.00
2022-09-21T04:18:09.597Z,100.00
2022-09-21T04:20:37.181Z,100.00
2022-09-21T04:23:04.789Z,100.00
2022-09-21T04:25:33.563Z,100.00
2022-09-21T04:28:03.054Z,100.00
2022-09-21T04:30:34.375Z,100.00
2022-09-21T04:33:05.337Z,100.00
2022-09-21T04:35:33.002Z,100.00
2022-09-21T04:38:00.642Z,100.00
2022-09-21T04:40:29.092Z,100.00
2022-09-21T04:42:56.751Z,100.00
2022-09-21T04:45:25.777Z,100.00
2022-09-21T04:47:53.373Z,100.00
2022-09-21T04:50:20.986Z,100.00
2022-09-21T04:52:48.706Z,100.00
2022-09-21T04:55:16.888Z,100.00
2022-09-21T04:57:44.532Z,100.00
2022-09-21T05:00:13.114Z,100.00
2022-09-21T05:02:42.026Z,100.00
2022-09-21T05:05:10.007Z,100.00
2022-09-21T05:07:37.664Z,100.00
2022-09-21T05:10:05.092Z,100.00
2022-09-21T05:12:33.294Z,100.00
2022-09-21T05:15:01.340Z,100.00
2022-09-21T05:17:29.120Z,100.00
2022-09-21T05:19:58.091Z,100.00
2022-09-21T05:22:25.666Z,100.00
2022-09-21T05:24:53.271Z,100.00
2022-09-21T05:27:20.851Z,100.00
2022-09-21T05:29:49.138Z,100.00
2022-09-21T05:32:23.355Z,100.00
2022-09-21T05:34:58.344Z,100.00
2022-09-21T05:37:46.547Z,100.00
2022-09-21T05:40:15.815Z,100.00
2022-09-21T05:42:43.949Z,100.00
2022-09-21T05:45:16.175Z,100.00
2022-09-21T05:47:56.719Z,100.00
2022-09-21T05:50:39.846Z,100.00
2022-09-21T05:53:23.495Z,100.00
2022-09-21T05:55:57.239Z,100.00
2022-09-21T05:58:33.985Z,100.00
2022-09-21T06:01:14.396Z,100.00
2022-09-21T06:03:43.700Z,100.00
2022-09-21T06:06:11.334Z,100.00
2022-09-21T06:08:40.328Z,100.00
2022-09-21T06:11:07.934Z,100.00
2022-09-21T06:13:38.407Z,100.00
2022-09-21T06:16:06.819Z,100.00
2022-09-21T06:18:38.922Z,100.00
2022-09-21T06:21:07.111Z,100.00
2022-09-21T06:23:35.864Z,100.00
2022-09-21T06:26:05.310Z,100.00
2022-09-21T06:28:32.998Z,100.00
2022-09-21T06:31:00.649Z,100.00
2022-09-21T06:33:28.257Z,100.00
2022-09-21T06:35:57.593Z,100.00
2022-09-21T06:38:26.189Z,100.00
2022-09-21T06:40:54.295Z,100.00
2022-09-21T06:43:23.472Z,100.00
2022-09-21T06:45:55.434Z,100.00
2022-09-21T06:48:23.754Z,100.00
2022-09-21T06:50:51.417Z,100.00
2022-09-21T06:53:19.342Z,100.00
2022-09-21T06:55:46.948Z,100.00
2022-09-21T06:58:14.532Z,100.00
2022-09-21T07:00:43.564Z,100.00
2022-09-21T07:03:11.899Z,100.00
2022-09-21T07:05:39.867Z,100.00
2022-09-21T07:10:05.100Z,100.00
2022-09-21T07:10:59.187Z,100.00
2022-09-21T07:13:26.847Z,100.00
2022-09-21T07:15:56.577Z,100.00
2022-09-21T07:18:24.457Z,100.00
2022-09-21T07:20:52.103Z,100.00
2022-09-21T07:23:22.274Z,100.00
2022-09-21T07:25:52.330Z,100.00
2022-09-21T07:28:20.679Z,100.00
2022-09-21T07:30:48.350Z,100.00
2022-09-21T07:33:17.369Z,100.00
2022-09-21T07:35:51.884Z,100.00
2022-09-21T07:38:19.552Z,100.00
2022-09-21T07:40:47.361Z,100.00
2022-09-21T07:43:15.250Z,100.00
2022-09-21T07:45:43.156Z,100.00
2022-09-21T07:48:10.761Z,100.00
2022-09-21T07:50:39.715Z,100.00
2022-09-21T07:53:07.542Z,100.00
2022-09-21T07:55:35.180Z,100.00
2022-09-21T07:58:20.288Z,100.00
2022-09-21T08:00:48.038Z,100.00
2022-09-21T08:03:15.855Z,100.00
2022-09-21T08:05:44.795Z,100.00
2022-09-21T08:08:12.369Z,100.00
2022-09-21T08:10:40.040Z,100.00
2022-09-21T08:13:07.662Z,100.00
2022-09-21T08:15:49.312Z,100.00
2022-09-21T08:18:17.870Z,100.00
2022-09-21T08:20:55.068Z,100.00
2022-09-21T08:23:22.649Z,100.00
2022-09-21T08:25:53.204Z,100.00
2022-09-21T08:28:20.826Z,100.00
2022-09-21T08:30:48.401Z,100.00
2022-09-21T08:33:15.981Z,100.00
2022-09-21T08:35:43.561Z,100.00
2022-09-21T08:38:12.460Z,100.00
2022-09-21T08:40:42.192Z,100.00
2022-09-21T08:43:12.207Z,100.00
2022-09-21T08:45:44.415Z,100.00
2022-09-21T08:48:21.014Z,100.00
2022-09-21T08:50:54.199Z,100.00
2022-09-21T08:53:31.613Z,100.00
2022-09-21T08:55:59.333Z,100.00
2022-09-21T08:58:29.058Z,100.00
2022-09-21T09:01:08.751Z,100.00
2022-09-21T09:03:54.773Z,100.00
2022-09-21T09:06:32.361Z,99.82
2022-09-21T09:09:26.237Z,100.00
2022-09-21T09:12:10.042Z,100.00
2022-09-21T09:14:59.227Z,100.00
2022-09-21T09:17:45.390Z,99.97
2022-09-21T09:20:16.755Z,100.00
2022-09-21T09:22:48.356Z,98.57
2022-09-21T09:25:22.602Z,97.88
2022-09-21T09:27:54.209Z,94.09
2022-09-21T09:30:24.673Z,93.83
2022-09-21T09:32:57.532Z,91.71
2022-09-21T09:35:30.631Z,94.24
2022-09-21T09:38:02.873Z,93.85
2022-09-21T09:40:49.620Z,95.30
2022-09-21T09:43:30.108Z,86.16
2022-09-21T09:46:06.085Z,91.39
2022-09-21T09:48:54.067Z,91.71
2022-09-21T09:51:22.178Z,94.13
2022-09-21T09:53:50.005Z,94.01
2022-09-21T09:56:19.654Z,91.09
2022-09-21T09:58:51.598Z,94.15
2022-09-21T10:01:40.686Z,90.76
2022-09-21T10:04:11.934Z,91.80
2022-09-21T10:06:45.142Z,88.77
2022-09-21T10:09:24.585Z,80.74
2022-09-21T10:11:54.398Z,80.02
2022-09-21T10:14:24.812Z,80.22
2022-09-21T10:16:54.350Z,73.50
2022-09-21T10:19:26.193Z,78.23
2022-09-21T10:21:58.879Z,78.39
2022-09-21T10:24:29.262Z,76.21
2022-09-21T10:27:06.145Z,72.50
2022-09-21T10:29:40.962Z,71.90
2022-09-21T10:32:22.058Z,68.51
2022-09-21T10:35:17.956Z,70.99
2022-09-21T10:37:48.423Z,71.28
2022-09-21T10:40:30.582Z,75.77
2022-09-21T10:43:01.343Z,76.86
2022-09-21T10:45:30.667Z,69.62
2022-09-21T10:48:00.621Z,70.35
2022-09-21T10:50:31.422Z,69.80
2022-09-21T10:53:02.552Z,76.33
2022-09-21T10:55:32.010Z,75.77
2022-09-21T10:58:01.474Z,77.24
2022-09-21T11:00:35.548Z,72.89
2022-09-21T11:03:22.414Z,71.89
2022-09-21T11:05:52.635Z,73.26
2022-09-21T11:08:25.096Z,76.63
2022-09-21T11:11:04.915Z,73.69
2022-09-21T11:13:37.655Z,76.60
2022-09-21T11:16:15.736Z,77.61
2022-09-21T11:18:52.905Z,75.93
2022-09-21T11:21:28.324Z,76.34
2022-09-21T11:24:05.665Z,70.33
2022-09-21T11:26:40.647Z,74.40
2022-09-21T11:29:17.530Z,74.41
2022-09-21T11:31:59.533Z,70.29
2022-09-21T11:34:54.637Z,73.21
2022-09-21T11:37:50.517Z,74.73
2022-09-21T11:40:30.998Z,76.02
2022-09-21T11:43:13.142Z,76.16
2022-09-21T11:45:58.874Z,78.62
2022-09-21T11:48:36.502Z,72.47
2022-09-21T11:51:20.095Z,77.94
2022-09-21T11:54:08.364Z,80.45
2022-09-21T11:56:46.335Z,78.67
2022-09-21T11:59:56.052Z,77.93
2022-09-21T12:02:43.756Z,80.71
2022-09-21T12:05:21.147Z,83.21
2022-09-21T12:08:18.371Z,76.70
2022-09-21T12:10:57.228Z,78.24
2022-09-21T12:13:34.567Z,81.64
2022-09-21T12:16:11.596Z,79.24
2022-09-21T12:18:48.108Z,78.09
2022-09-21T12:21:22.475Z,76.73
2022-09-21T12:23:54.970Z,74.22
2022-09-21T12:26:28.183Z,76.96
2022-09-21T12:29:00.994Z,73.51
2022-09-21T12:31:32.608Z,72.79
2022-09-21T12:34:05.967Z,72.34
2022-09-21T12:36:41.046Z,74.48
2022-09-21T12:39:19.813Z,73.32
2022-09-21T12:41:55.563Z,74.49
2022-09-21T12:44:29.785Z,72.76
2022-09-21T12:47:09.833Z,75.14
2022-09-21T12:49:43.448Z,76.89
2022-09-21T12:52:21.071Z,75.65
2022-09-21T12:54:56.834Z,73.49
2022-09-21T12:57:53.515Z,71.14
2022-09-21T13:00:23.109Z,68.56
2022-09-21T13:02:59.436Z,67.51
2022-09-21T13:05:40.286Z,70.01
2022-09-21T13:08:16.079Z,68.96
2022-09-21T13:10:54.865Z,66.90
2022-09-21T13:13:33.332Z,71.41
2022-09-21T13:16:01.896Z,70.92
2022-09-21T13:18:36.290Z,66.04
2022-09-21T13:21:19.351Z,67.38
2022-09-21T13:23:54.843Z,68.41
2022-09-21T13:26:35.854Z,70.41
2022-09-21T13:29:38.002Z,67.43
2022-09-21T13:32:23.743Z,68.57
2022-09-21T13:34:51.843Z,65.85
2022-09-21T13:37:35.778Z,69.01
2022-09-21T13:40:41.007Z,65.44
2022-09-21T13:43:47.109Z,65.97
2022-09-21T13:46:55.253Z,67.65
2022-09-21T13:49:31.987Z,66.72
2022-09-21T13:52:03.234Z,69.05
2022-09-21T13:54:35.054Z,62.13
2022-09-21T13:57:17.179Z,65.06
2022-09-21T13:59:46.890Z,66.84
2022-09-21T14:02:32.503Z,63.92
2022-09-21T14:05:07.631Z,63.95
2022-09-21T14:07:36.272Z,65.85
2022-09-21T14:10:08.417Z,65.31
2022-09-21T14:12:45.407Z,64.92
2022-09-21T14:15:40.801Z,66.65
2022-09-21T14:18:40.542Z,66.81
2022-09-21T14:21:17.120Z,65.66
2022-09-21T14:24:27.689Z,64.90
2022-09-21T14:27:14.258Z,62.21
2022-09-21T14:29:46.995Z,63.47
2022-09-21T14:32:23.334Z,64.61
2022-09-21T14:34:56.463Z,63.56
2022-09-21T14:37:35.164Z,60.67
2022-09-21T14:40:08.042Z,58.92
2022-09-21T14:42:40.663Z,58.99
2022-09-21T14:45:18.081Z,60.15
2022-09-21T14:48:02.671Z,58.44
2022-09-21T14:50:36.014Z,59.53
2022-09-21T14:53:29.424Z,58.82
2022-09-21T14:56:22.544Z,60.46
2022-09-21T14:59:07.669Z,57.75
2022-09-21T15:01:41.402Z,59.92
2022-09-21T15:04:32.055Z,58.97
2022-09-21T15:07:46.094Z,58.93
2022-09-21T15:10:40.334Z,59.15
2022-09-21T15:13:20.255Z,58.25
2022-09-21T15:16:07.125Z,57.31
2022-09-21T15:18:41.735Z,59.64
2022-09-21T15:21:24.082Z,59.94
2022-09-21T15:23:52.929Z,61.45
2022-09-21T15:26:26.763Z,60.11
2022-09-21T15:29:12.284Z,61.19
2022-09-21T15:31:42.964Z,61.10
2022-09-21T15:34:11.930Z,62.83
2022-09-21T15:36:41.476Z,64.13
2022-09-21T15:39:22.757Z,60.61
2022-09-21T15:42:03.125Z,61.91
2022-09-21T15:44:33.954Z,60.86
2022-09-21T15:47:04.808Z,60.58
2022-09-21T15:49:34.469Z,60.86
2022-09-21T15:52:12.872Z,60.37
2022-09-21T15:54:46.043Z,60.87
2022-09-21T15:57:38.423Z,61.55
2022-09-21T16:00:19.343Z,62.25
2022-09-21T16:03:04.584Z,63.07
2022-09-21T16:05:42.651Z,64.97
2022-09-21T16:08:22.625Z,62.30
2022-09-21T16:10:50.964Z,62.93
2022-09-21T16:13:39.082Z,63.99
2022-09-21T16:16:09.240Z,64.59
2022-09-21T16:18:48.659Z,63.98
2022-09-21T16:21:21.999Z,64.55
2022-09-21T16:23:51.811Z,63.87
2022-09-21T16:26:23.284Z,65.29
2022-09-21T16:28:58.541Z,65.66
2022-09-21T16:31:31.126Z,66.12
2022-09-21T16:34:04.736Z,66.55
2022-09-21T16:36:40.837Z,67.57
2022-09-21T16:39:15.398Z,67.50
2022-09-21T16:41:48.277Z,69.42
2022-09-21T16:44:20.820Z,69.74
2022-09-21T16:46:51.938Z,71.55
2022-09-21T16:49:24.800Z,71.12
2022-09-21T16:51:55.772Z,71.55
2022-09-21T16:54:25.234Z,70.63
2022-09-21T16:56:53.576Z,71.25
2022-09-21T16:59:22.998Z,73.19
2022-09-21T17:01:56.262Z,71.58
2022-09-21T17:04:28.379Z,71.66
2022-09-21T17:06:56.337Z,72.84
2022-09-21T17:09:29.805Z,74.51
2022-09-21T17:11:59.370Z,76.05
2022-09-21T17:14:29.523Z,75.09
2022-09-21T17:16:59.066Z,75.85
2022-09-21T17:19:28.189Z,77.09
2022-09-21T17:21:55.826Z,76.58
2022-09-21T17:24:48.775Z,77.14
2022-09-21T17:27:12.328Z,78.46
2022-09-21T17:29:47.144Z,79.29
2022-09-21T17:32:16.097Z,79.50
2022-09-21T17:34:46.042Z,80.14
2022-09-21T17:37:14.355Z,80.58
2022-09-21T17:39:42.622Z,83.53
2022-09-21T17:42:18.943Z,85.95
2022-09-21T17:44:57.026Z,86.51
2022-09-21T17:47:28.077Z,88.30
2022-09-21T17:50:01.532Z,87.68
2022-09-21T17:52:47.141Z,88.82
2022-09-21T17:55:15.456Z,90.61
2022-09-21T17:57:59.150Z,92.52
2022-09-21T18:00:38.802Z,93.08
2022-09-21T18:03:21.766Z,95.15
2022-09-21T18:05:52.724Z,95.54
2022-09-21T18:08:20.788Z,96.83
2022-09-21T18:10:59.021Z,97.91
2022-09-21T18:13:38.238Z,99.22
2022-09-21T18:16:22.973Z,100.00
2022-09-21T18:19:10.302Z,100.00
2022-09-21T18:21:44.841Z,100.00
2022-09-21T18:24:21.894Z,100.00
2022-09-21T18:26:52.197Z,100.00
2022-09-21T18:29:46.247Z,100.00
2022-09-21T18:32:32.219Z,100.00
2022-09-21T18:35:19.713Z,100.00
2022-09-21T18:38:02.867Z,100.00
2022-09-21T18:40:37.467Z,100.00
2022-09-21T18:43:14.510Z,100.00
2022-09-21T18:45:47.047Z,100.00
2022-09-21T18:48:31.463Z,100.00
2022-09-21T18:51:06.689Z,100.00
2022-09-21T18:53:45.187Z,100.00
2022-09-21T18:56:13.589Z,100.00
2022-09-21T18:58:42.643Z,100.00
2022-09-21T19:01:12.383Z,100.00
2022-09-21T19:03:40.759Z,100.00
2022-09-21T19:06:27.312Z,100.00
2022-09-21T19:09:05.799Z,100.00
2022-09-21T19:11:38.152Z,100.00
2022-09-21T19:14:16.343Z,100.00
2022-09-21T19:16:56.131Z,100.00
2022-09-21T19:19:36.937Z,100.00
2022-09-21T19:22:12.456Z,100.00
2022-09-21T19:24:56.102Z,100.00
2022-09-21T19:27:34.067Z,100.00
2022-09-21T19:30:06.506Z,100.00
2022-09-21T19:32:37.793Z,100.00
2022-09-21T19:35:21.897Z,100.00
2022-09-21T19:37:50.535Z,100.00
2022-09-21T19:40:21.775Z,100.00
2022-09-21T19:43:02.918Z,100.00
2022-09-21T19:45:39.571Z,100.00
2022-09-21T19:48:14.000Z,100.00
2022-09-21T19:50:46.685Z,100.00
2022-09-21T19:53:32.925Z,100.00
2022-09-21T19:56:20.902Z,100.00
2022-09-21T19:59:06.433Z,100.00
2022-09-21T20:01:42.518Z,100.00
2022-09-21T20:04:14.978Z,100.00
2022-09-21T20:06:46.551Z,100.00
2022-09-21T20:09:20.153Z,100.00
2022-09-21T20:11:56.835Z,100.00
2022-09-21T20:14:32.767Z,100.00
2022-09-21T20:17:03.119Z,100.00
2022-09-21T20:19:44.556Z,100.00
2022-09-21T20:22:14.749Z,100.00
2022-09-21T20:24:52.614Z,100.00
2022-09-21T20:27:29.878Z,100.00
2022-09-21T20:29:57.803Z,100.00
2022-09-21T20:32:25.624Z,100.00
2022-09-21T20:34:54.034Z,100.00
2022-09-21T20:37:23.625Z,100.00
2022-09-21T20:39:51.349Z,100.00
2022-09-21T20:42:23.387Z,100.00
2022-09-21T20:44:52.605Z,100.00
2022-09-21T20:47:21.609Z,100.00
2022-09-21T20:49:50.312Z,100.00
2022-09-21T20:52:18.202Z,100.00
2022-09-21T20:54:49.250Z,100.00
2022-09-21T20:57:17.823Z,100.00
2022-09-21T20:59:45.562Z,100.00
2022-09-21T21:02:16.554Z,100.00
2022-09-21T21:04:44.298Z,100.00
2022-09-21T21:07:14.981Z,100.00
2022-09-21T21:09:42.617Z,100.00
2022-09-21T21:12:10.561Z,100.00
2022-09-21T21:14:38.206Z,100.00
2022-09-21T21:17:06.492Z,100.00
2022-09-21T21:19:35.646Z,100.00
2022-09-21T21:22:03.382Z,100.00
2022-09-21T21:24:44.057Z,100.00
2022-09-21T21:27:16.237Z,100.00
2022-09-21T21:29:46.078Z,100.00
2022-09-21T21:32:14.409Z,100.00
2022-09-21T21:34:43.674Z,100.00
2022-09-21T21:37:11.653Z,100.00
2022-09-21T21:39:39.237Z,100.00
2022-09-21T21:42:07.285Z,100.00
2022-09-21T21:44:35.170Z,100.00
2022-09-21T21:47:15.431Z,100.00
2022-09-21T21:49:51.782Z,100.00
2022-09-21T21:52:19.379Z,100.00
2022-09-21T21:54:46.947Z,100.00
2022-09-21T21:57:14.955Z,100.00
2022-09-21T21:59:43.149Z,100.00
2022-09-21T22:02:11.138Z,100.00
2022-09-21T22:04:38.845Z,100.00
2022-09-21T22:07:09.829Z,100.00
2022-09-21T22:09:37.402Z,100.00
2022-09-21T22:12:05.218Z,100.00
2022-09-21T22:14:33.889Z,100.00
2022-09-21T22:17:01.505Z,100.00
2022-09-21T22:19:29.090Z,100.00
2022-09-21T22:21:57.510Z,100.00
2022-09-21T22:24:26.423Z,100.00
2022-09-21T22:26:54.061Z,100.00
2022-09-21T22:29:21.630Z,100.00
2022-09-21T22:31:51.569Z,100.00
2022-09-21T22:34:19.467Z,100.00
2022-09-21T22:36:47.034Z,100.00
2022-09-21T22:39:14.722Z,100.00
2022-09-21T22:41:43.771Z,100.00
2022-09-21T22:44:11.810Z,100.00
2022-09-21T22:46:39.794Z,100.00
2022-09-21T22:49:07.777Z,100.00
2022-09-21T22:51:36.259Z,100.00
2022-09-21T22:54:03.913Z,100.00
2022-09-21T22:56:33.542Z,100.00
2022-09-21T22:59:04.555Z,100.00
2022-09-21T23:01:34.454Z,100.00
2022-09-21T23:04:04.152Z,100.00
2022-09-21T23:06:34.176Z,100.00
2022-09-21T23:09:03.607Z,100.00
2022-09-21T23:11:35.674Z,100.00
2022-09-21T23:14:05.576Z,100.00
2022-09-21T23:16:33.294Z,100.00
2022-09-21T23:19:01.222Z,100.00
2022-09-21T23:21:30.211Z,100.00
2022-09-21T23:23:59.840Z,100.00
2022-09-21T23:26:28.891Z,100.00
2022-09-21T23:28:57.800Z,100.00
2022-09-21T23:31:27.509Z,100.00
2022-09-21T23:33:56.851Z,100.00
2022-09-21T23:36:26.472Z,100.00
2022-09-21T23:38:54.068Z,100.00
2022-09-21T23:41:23.388Z,100.00
2022-09-21T23:43:51.081Z,100.00
2022-09-21T23:46:20.687Z,100.00
2022-09-21T23:48:50.124Z,100.00
2022-09-21T23:51:18.454Z,100.00
2022-09-21T23:53:46.492Z,100.00
2022-09-21T23:56:17.473Z,100.00
2022-09-21T23:58:45.577Z,100.00
